createdAt,value
2023-03-28T00:01:33.663Z,2.55
2023-03-28T00:04:03.167Z,2.60
2023-03-28T00:06:34.003Z,2.40
2023-03-28T00:09:03.464Z,3.92
2023-03-28T00:11:33.503Z,3.20
2023-03-28T00:14:03.513Z,3.97
2023-03-28T00:16:39.381Z,3.90
2023-03-28T00:19:16.785Z,3.85
2023-03-28T00:21:51.366Z,4.00
2023-03-28T00:24:22.354Z,3.58
2023-03-28T00:26:54.913Z,3.92
2023-03-28T00:29:26.161Z,4.00
2023-03-28T00:31:55.564Z,5.00
2023-03-28T00:34:25.668Z,4.03
2023-03-28T00:36:56.931Z,5.05
2023-03-28T00:39:27.726Z,5.05
2023-03-28T00:41:57.982Z,5.63
2023-03-28T00:44:56.198Z,4.28
2023-03-28T00:47:40.939Z,4.55
2023-03-28T00:50:20.128Z,5.30
2023-03-28T00:52:56.658Z,5.38
2023-03-28T00:55:32.444Z,4.88
2023-03-28T00:58:02.139Z,4.82
2023-03-28T01:00:32.908Z,5.70
2023-03-28T01:03:06.728Z,4.88
2023-03-28T01:05:37.459Z,4.72
2023-03-28T01:08:14.986Z,5.35
2023-03-28T01:10:46.366Z,5.57
2023-03-28T01:13:21.048Z,5.25
2023-03-28T01:15:52.072Z,5.22
2023-03-28T01:18:26.739Z,5.85
2023-03-28T01:21:54.870Z,4.90
2023-03-28T01:25:19.843Z,6.15
2023-03-28T01:27:54.468Z,5.05
2023-03-28T01:31:08.672Z,5.03
2023-03-28T01:34:54.745Z,4.97
2023-03-28T01:37:40.999Z,5.50
2023-03-28T01:40:31.440Z,5.10
2023-03-28T01:43:26.024Z,5.47
2023-03-28T01:46:03.380Z,5.07
2023-03-28T01:48:52.058Z,4.88
2023-03-28T01:51:38.128Z,5.50
2023-03-28T01:54:18.005Z,5.25
2023-03-28T01:56:54.670Z,5.63
2023-03-28T01:59:39.272Z,4.40
2023-03-28T02:02:43.089Z,6.03
2023-03-28T02:05:31.769Z,4.85
2023-03-28T02:08:05.180Z,5.38
2023-03-28T02:10:51.407Z,7.00
2023-03-28T02:16:50.012Z,5.55
2023-03-28T02:19:50.547Z,5.05
2023-03-28T02:22:37.223Z,5.40
2023-03-28T02:25:19.638Z,5.72
2023-03-28T02:28:06.807Z,5.25
2023-03-28T02:30:40.614Z,5.50
2023-03-28T02:33:39.059Z,5.10
2023-03-28T02:36:33.614Z,6.05
2023-03-28T02:39:48.214Z,6.47
2023-03-28T02:43:08.606Z,4.88
2023-03-28T02:46:12.064Z,5.75
2023-03-28T02:49:47.288Z,5.78
2023-03-28T02:52:35.036Z,6.20
2023-03-28T02:55:17.483Z,5.50
2023-03-28T02:58:13.358Z,5.70
2023-03-28T03:00:42.930Z,5.75
2023-03-28T03:03:14.092Z,5.85
2023-03-28T03:05:45.292Z,5.40
2023-03-28T03:08:15.188Z,7.15
2023-03-28T03:10:44.610Z,5.43
2023-03-28T03:13:14.043Z,5.90
2023-03-28T03:15:43.747Z,5.65
2023-03-28T03:18:22.910Z,5.60
2023-03-28T03:20:54.800Z,6.20
2023-03-28T03:23:24.272Z,6.18
2023-03-28T03:25:57.254Z,6.05
2023-03-28T03:28:36.836Z,5.63
2023-03-28T03:31:08.623Z,6.32
2023-03-28T03:34:01.912Z,6.47
2023-03-28T03:36:36.650Z,6.80
2023-03-28T03:39:09.232Z,5.78
2023-03-28T03:41:39.300Z,6.40
2023-03-28T03:44:09.209Z,6.05
2023-03-28T03:46:39.343Z,5.63
2023-03-28T03:49:10.868Z,6.15
2023-03-28T03:51:41.980Z,5.13
2023-03-28T03:54:11.654Z,5.63
2023-03-28T03:56:42.296Z,5.78
2023-03-28T03:59:13.224Z,6.18
2023-03-28T04:01:43.945Z,6.15
2023-03-28T04:04:33.701Z,5.80
2023-03-28T04:07:10.725Z,6.18
2023-03-28T04:09:40.547Z,7.45
2023-03-28T04:12:12.584Z,6.88
2023-03-28T04:15:10.127Z,6.40
2023-03-28T04:17:41.350Z,6.78
2023-03-28T04:20:15.355Z,5.80
2023-03-28T04:23:06.033Z,7.28
2023-03-28T04:28:16.104Z,6.35
2023-03-28T04:31:12.060Z,6.32
2023-03-28T04:34:00.319Z,6.13
2023-03-28T04:36:31.402Z,6.18
2023-03-28T04:39:05.988Z,6.57
2023-03-28T04:42:14.254Z,7.05
2023-03-28T04:45:17.920Z,7.22
2023-03-28T04:47:49.781Z,6.18
2023-03-28T04:50:21.613Z,6.47
2023-03-28T04:52:51.088Z,6.20
2023-03-28T04:55:21.848Z,7.88
2023-03-28T04:57:52.630Z,6.70
2023-03-28T05:00:25.457Z,7.05
2023-03-28T05:03:14.456Z,7.53
2023-03-28T05:05:58.039Z,7.28
2023-03-28T05:08:27.764Z,6.70
2023-03-28T05:10:58.886Z,7.72
2023-03-28T05:13:29.307Z,6.90
2023-03-28T05:16:12.903Z,7.10
2023-03-28T05:19:01.607Z,8.40
2023-03-28T05:21:51.033Z,6.75
2023-03-28T05:24:20.723Z,6.93
2023-03-28T05:26:51.549Z,7.38
2023-03-28T05:29:25.747Z,7.88
2023-03-28T05:31:55.819Z,6.85
2023-03-28T05:34:30.491Z,7.43
2023-03-28T05:37:00.412Z,7.18
2023-03-28T05:39:32.998Z,7.60
2023-03-28T05:44:40.741Z,7.10
2023-03-28T05:47:28.976Z,7.20
2023-03-28T05:50:00.451Z,6.82
2023-03-28T05:52:29.933Z,7.00
2023-03-28T05:54:59.469Z,7.05
2023-03-28T05:57:30.246Z,7.35
2023-03-28T05:59:59.822Z,8.00
2023-03-28T06:02:30.935Z,6.57
2023-03-28T06:05:00.477Z,7.18
2023-03-28T06:07:41.408Z,6.90
2023-03-28T06:10:15.550Z,7.55
2023-03-28T06:12:56.169Z,7.30
2023-03-28T06:15:26.308Z,6.25
2023-03-28T06:17:55.997Z,7.50
2023-03-28T06:20:26.069Z,6.95
2023-03-28T06:22:57.466Z,7.47
2023-03-28T06:25:26.986Z,6.80
2023-03-28T06:27:58.088Z,5.82
2023-03-28T06:30:27.689Z,6.07
2023-03-28T06:32:57.445Z,6.68
2023-03-28T06:35:27.380Z,6.43
2023-03-28T06:37:56.889Z,6.65
2023-03-28T06:40:29.020Z,6.18
2023-03-28T06:43:00.623Z,6.57
2023-03-28T06:45:50.429Z,6.03
2023-03-28T06:48:20.901Z,5.53
2023-03-28T06:51:16.434Z,5.40
2023-03-28T06:53:48.047Z,6.03
2023-03-28T06:56:19.761Z,6.00
2023-03-28T06:58:50.827Z,5.55
2023-03-28T07:01:25.739Z,4.82
2023-03-28T07:04:21.597Z,5.43
2023-03-28T07:06:51.065Z,5.50
2023-03-28T07:09:20.607Z,5.30
2023-03-28T07:11:56.600Z,4.70
2023-03-28T07:14:28.188Z,5.15
2023-03-28T07:16:57.797Z,4.47
2023-03-28T07:19:28.983Z,4.95
2023-03-28T07:21:58.578Z,4.80
2023-03-28T07:24:28.598Z,5.82
2023-03-28T07:29:39.617Z,4.63
2023-03-28T07:32:09.153Z,5.72
2023-03-28T07:34:38.970Z,5.43
2023-03-28T07:37:11.182Z,5.85
2023-03-28T07:39:56.491Z,5.07
2023-03-28T07:42:28.729Z,3.72
2023-03-28T07:44:59.544Z,5.15
2023-03-28T07:47:31.188Z,5.07
2023-03-28T07:50:00.636Z,5.03
2023-03-28T07:52:30.346Z,4.93
2023-03-28T07:55:00.040Z,4.55
2023-03-28T07:57:30.607Z,4.32
2023-03-28T08:00:18.672Z,5.97
2023-03-28T08:03:05.866Z,5.28
2023-03-28T08:05:37.555Z,4.30
2023-03-28T08:08:09.209Z,3.88
2023-03-28T08:10:38.764Z,4.30
2023-03-28T08:13:08.246Z,7.70
2023-03-28T08:15:39.220Z,4.53
2023-03-28T08:18:09.134Z,5.05
2023-03-28T08:20:40.232Z,4.65
2023-03-28T08:23:15.915Z,5.15
2023-03-28T08:25:45.419Z,5.40
2023-03-28T08:28:17.752Z,4.63
2023-03-28T08:30:48.824Z,4.97
2023-03-28T08:33:18.284Z,4.97
2023-03-28T08:35:48.221Z,5.10
2023-03-28T08:38:21.279Z,4.50
2023-03-28T08:41:03.361Z,4.25
2023-03-28T08:44:16.997Z,5.15
2023-03-28T08:46:54.327Z,4.38
2023-03-28T08:49:24.315Z,4.07
2023-03-28T08:51:59.534Z,4.20
2023-03-28T08:54:38.792Z,3.92
2023-03-28T08:57:17.568Z,2.80
2023-03-28T08:59:59.984Z,3.22
2023-03-28T09:02:33.336Z,3.08
2023-03-28T09:07:47.500Z,3.50
2023-03-28T09:10:28.744Z,2.90
2023-03-28T09:13:26.995Z,3.75
2023-03-28T09:16:31.713Z,3.13
2023-03-28T09:19:47.859Z,3.80
2023-03-28T09:23:19.789Z,2.45
2023-03-28T09:26:14.087Z,2.20
2023-03-28T09:28:53.941Z,2.88
2023-03-28T09:31:31.064Z,2.05
2023-03-28T09:34:03.699Z,2.10
2023-03-28T09:36:49.551Z,2.13
2023-03-28T09:39:32.651Z,2.45
2023-03-28T09:42:12.233Z,2.63
2023-03-28T09:45:05.787Z,2.22
2023-03-28T09:47:54.166Z,2.30
2023-03-28T09:50:27.677Z,2.60
2023-03-28T09:53:01.540Z,4.15
2023-03-28T09:55:32.467Z,2.55
2023-03-28T09:58:07.143Z,2.47
2023-03-28T10:00:57.035Z,2.55
2023-03-28T10:03:54.867Z,2.40
2023-03-28T10:06:40.622Z,2.20
2023-03-28T10:09:20.055Z,2.22
2023-03-28T10:12:10.072Z,2.08
2023-03-28T10:14:47.079Z,1.92
2023-03-28T10:17:42.278Z,1.85
2023-03-28T10:20:21.476Z,2.28
2023-03-28T10:22:57.138Z,1.92
2023-03-28T10:28:14.123Z,1.95
2023-03-28T10:30:44.152Z,1.88
2023-03-28T10:33:33.115Z,2.38
2023-03-28T10:36:32.607Z,1.90
2023-03-28T10:39:24.168Z,1.65
2023-03-28T10:42:15.382Z,2.38
2023-03-28T10:45:01.670Z,1.63
2023-03-28T10:47:35.204Z,1.27
2023-03-28T10:53:10.441Z,2.33
2023-03-28T10:56:01.579Z,1.80
2023-03-28T10:58:59.503Z,1.90
2023-03-28T11:01:48.011Z,1.95
2023-03-28T11:04:39.553Z,3.38
2023-03-28T11:07:18.050Z,2.50
2023-03-28T11:10:17.046Z,1.98
2023-03-28T11:13:17.312Z,2.50
2023-03-28T11:16:00.736Z,1.98
2023-03-28T11:19:01.804Z,2.20
2023-03-28T11:21:48.426Z,2.35
2023-03-28T11:24:32.590Z,2.03
2023-03-28T11:27:25.522Z,2.78
2023-03-28T11:30:21.439Z,2.17
2023-03-28T11:33:16.620Z,2.25
2023-03-28T11:35:51.165Z,2.28
2023-03-28T11:38:26.244Z,2.08
2023-03-28T11:41:04.301Z,2.38
2023-03-28T11:44:02.368Z,2.92
2023-03-28T11:46:36.889Z,2.63
2023-03-28T11:49:20.717Z,2.47
2023-03-28T11:52:02.524Z,2.60
2023-03-28T11:54:39.819Z,2.63
2023-03-28T11:57:20.813Z,2.40
2023-03-28T12:00:02.541Z,2.45
2023-03-28T12:02:48.721Z,2.38
2023-03-28T12:05:30.705Z,2.22
2023-03-28T12:08:09.346Z,2.67
2023-03-28T12:10:43.263Z,2.58
2023-03-28T12:13:45.568Z,2.50
2023-03-28T12:16:23.963Z,2.30
2023-03-28T12:19:00.185Z,1.73
2023-03-28T12:22:01.539Z,2.10
2023-03-28T12:24:52.510Z,2.40
2023-03-28T12:27:43.938Z,2.72
2023-03-28T12:30:26.504Z,2.80
2023-03-28T12:33:14.060Z,2.28
2023-03-28T12:36:00.542Z,2.60
2023-03-28T12:38:39.986Z,2.38
2023-03-28T12:41:29.071Z,2.10
2023-03-28T12:44:04.561Z,2.22
2023-03-28T12:46:48.077Z,2.22
2023-03-28T12:49:33.811Z,2.58
2023-03-28T12:52:13.493Z,2.33
2023-03-28T12:55:01.601Z,2.58
2023-03-28T12:57:48.395Z,2.13
2023-03-28T13:00:48.079Z,2.35
2023-03-28T13:03:51.263Z,2.67
2023-03-28T13:06:40.227Z,2.50
2023-03-28T13:09:51.541Z,2.60
2023-03-28T13:12:41.608Z,2.58
2023-03-28T13:15:33.818Z,3.33
2023-03-28T13:18:32.633Z,2.03
2023-03-28T13:21:07.183Z,2.20
2023-03-28T13:23:47.650Z,2.10
2023-03-28T13:26:17.134Z,2.22
2023-03-28T13:28:51.593Z,2.40
2023-03-28T13:31:24.302Z,2.13
2023-03-28T13:34:01.425Z,2.08
2023-03-28T13:36:33.444Z,2.22
2023-03-28T13:39:24.937Z,2.20
2023-03-28T13:42:01.409Z,2.15
2023-03-28T13:44:43.275Z,2.80
2023-03-28T13:47:26.966Z,2.13
2023-03-28T13:50:06.084Z,2.60
2023-03-28T13:52:35.618Z,2.15
2023-03-28T13:55:20.966Z,2.88
2023-03-28T13:57:51.364Z,2.67
2023-03-28T14:00:26.701Z,2.30
2023-03-28T14:03:04.727Z,2.03
2023-03-28T14:05:35.941Z,2.38
2023-03-28T14:08:25.327Z,2.97
2023-03-28T14:10:56.876Z,3.30
2023-03-28T14:13:30.108Z,2.58
2023-03-28T14:18:36.265Z,2.33
2023-03-28T14:21:07.603Z,3.03
2023-03-28T14:23:40.203Z,2.42
2023-03-28T14:26:19.990Z,2.75
2023-03-28T14:28:52.242Z,2.60
2023-03-28T14:31:38.296Z,2.60
2023-03-28T14:34:23.879Z,2.60
2023-03-28T14:37:00.894Z,2.90
2023-03-28T14:39:33.875Z,3.10
2023-03-28T14:42:07.405Z,2.83
2023-03-28T14:44:42.212Z,2.58
2023-03-28T14:47:18.380Z,2.47
2023-03-28T14:49:48.066Z,2.83
2023-03-28T14:52:30.167Z,2.88
2023-03-28T14:55:01.647Z,3.35
2023-03-28T14:57:31.713Z,2.85
2023-03-28T15:00:01.869Z,2.88
2023-03-28T15:02:36.758Z,2.28
2023-03-28T15:05:11.049Z,2.70
2023-03-28T15:07:42.128Z,2.67
2023-03-28T15:10:22.809Z,2.90
2023-03-28T15:13:05.368Z,2.70
2023-03-28T15:15:38.532Z,2.40
2023-03-28T15:23:22.070Z,2.65
2023-03-28T15:25:52.307Z,2.60
2023-03-28T15:28:22.035Z,3.03
2023-03-28T15:30:51.700Z,2.83
2023-03-28T15:33:26.059Z,3.50
2023-03-28T15:36:08.281Z,2.38
2023-03-28T15:38:41.136Z,2.72
2023-03-28T15:41:20.083Z,2.63
2023-03-28T15:44:13.189Z,2.47
2023-03-28T15:46:42.685Z,2.40
2023-03-28T15:49:13.844Z,2.70
2023-03-28T15:51:52.521Z,2.42
2023-03-28T15:54:31.309Z,2.35
2023-03-28T15:57:03.612Z,3.08
2023-03-28T15:59:39.217Z,2.47
2023-03-28T16:02:37.154Z,2.97
2023-03-28T16:05:28.682Z,2.72
2023-03-28T16:07:58.193Z,3.10
2023-03-28T16:10:27.750Z,2.70
2023-03-28T16:13:23.161Z,2.63
2023-03-28T16:16:25.172Z,2.97
2023-03-28T16:19:06.291Z,2.53
2023-03-28T16:21:37.114Z,2.72
2023-03-28T16:24:07.159Z,2.92
2023-03-28T16:26:36.705Z,2.60
2023-03-28T16:29:06.306Z,2.85
2023-03-28T16:31:36.065Z,2.80
2023-03-28T16:34:08.527Z,3.67
2023-03-28T16:36:40.814Z,2.65
2023-03-28T16:39:12.049Z,2.72
2023-03-28T16:41:41.495Z,2.70
2023-03-28T16:44:11.878Z,2.85
2023-03-28T16:46:41.582Z,2.47
2023-03-28T16:49:11.324Z,2.90
2023-03-28T16:51:42.153Z,3.33
2023-03-28T16:54:11.721Z,3.55
2023-03-28T16:56:41.409Z,2.45
2023-03-28T16:59:11.892Z,2.90
2023-03-28T17:01:42.966Z,3.08
2023-03-28T17:04:12.516Z,2.83
2023-03-28T17:06:43.311Z,2.80
2023-03-28T17:09:13.221Z,3.03
2023-03-28T17:11:42.898Z,2.60
2023-03-28T17:14:12.289Z,2.22
2023-03-28T17:16:41.826Z,2.63
2023-03-28T17:19:11.224Z,3.00
2023-03-28T17:21:42.003Z,2.55
2023-03-28T17:24:11.637Z,4.38
2023-03-28T17:26:41.245Z,2.80
2023-03-28T17:29:11.935Z,3.17
2023-03-28T17:31:41.815Z,2.25
2023-03-28T17:34:12.708Z,2.50
2023-03-28T17:36:44.238Z,2.22
2023-03-28T17:39:13.712Z,2.65
2023-03-28T17:41:43.147Z,2.42
2023-03-28T17:44:12.639Z,3.20
2023-03-28T17:46:44.560Z,2.50
2023-03-28T17:49:15.222Z,3.05
2023-03-28T17:51:47.983Z,2.90
2023-03-28T17:54:17.916Z,3.67
2023-03-28T17:56:47.434Z,3.50
2023-03-28T17:59:17.233Z,5.20
2023-03-28T18:01:46.753Z,4.10
2023-03-28T18:04:17.522Z,4.03
2023-03-28T18:07:15.924Z,3.75
2023-03-28T18:09:46.358Z,3.25
2023-03-28T18:12:17.468Z,3.25
2023-03-28T18:14:48.355Z,2.97
2023-03-28T18:17:19.754Z,3.45
2023-03-28T18:19:49.204Z,2.92
2023-03-28T18:22:20.137Z,3.50
2023-03-28T18:24:49.545Z,3.42
2023-03-28T18:27:18.989Z,3.65
2023-03-28T18:29:49.481Z,3.00
2023-03-28T18:32:18.868Z,4.18
2023-03-28T18:34:48.293Z,2.83
2023-03-28T18:37:19.087Z,3.35
2023-03-28T18:39:48.800Z,4.00
2023-03-28T18:42:18.282Z,3.45
2023-03-28T18:44:48.742Z,3.47
2023-03-28T18:47:18.182Z,3.50
2023-03-28T18:49:47.573Z,4.25
2023-03-28T18:52:17.198Z,3.78
2023-03-28T18:54:49.201Z,4.10
2023-03-28T18:57:18.743Z,2.85
2023-03-28T18:59:48.346Z,3.50
2023-03-28T19:02:17.799Z,3.22
2023-03-28T19:04:47.626Z,3.53
2023-03-28T19:07:18.880Z,2.80
2023-03-28T19:09:50.151Z,3.92
2023-03-28T19:12:19.541Z,3.22
2023-03-28T19:14:50.153Z,3.45
2023-03-28T19:17:19.728Z,4.05
2023-03-28T19:19:49.157Z,3.00
2023-03-28T19:22:18.525Z,3.15
2023-03-28T19:24:49.303Z,3.38
2023-03-28T19:27:18.745Z,2.85
2023-03-28T19:29:48.271Z,2.83
2023-03-28T19:32:18.008Z,2.88
2023-03-28T19:34:47.495Z,2.95
2023-03-28T19:37:16.950Z,3.28
2023-03-28T19:39:46.351Z,3.45
2023-03-28T19:42:18.096Z,3.28
2023-03-28T19:44:47.531Z,2.60
2023-03-28T19:47:16.954Z,3.38
2023-03-28T19:49:46.350Z,3.30
2023-03-28T19:52:15.848Z,3.20
2023-03-28T19:54:45.275Z,3.15
2023-03-28T19:57:16.095Z,2.65
2023-03-28T19:59:45.724Z,3.25
2023-03-28T20:02:15.466Z,3.15
2023-03-28T20:04:44.907Z,3.53
2023-03-28T20:07:14.403Z,4.53
2023-03-28T20:09:48.641Z,3.53
2023-03-28T20:12:20.770Z,3.97
2023-03-28T20:14:50.144Z,3.20
2023-03-28T20:17:19.763Z,3.50
2023-03-28T20:19:51.477Z,3.42
2023-03-28T20:22:24.321Z,3.80
2023-03-28T20:24:53.784Z,4.43
2023-03-28T20:27:25.048Z,4.03
2023-03-28T20:29:54.438Z,4.30
2023-03-28T20:32:23.858Z,4.30
2023-03-28T20:34:53.302Z,4.03
2023-03-28T20:37:23.458Z,4.40
2023-03-28T20:39:53.395Z,3.78
2023-03-28T20:42:24.319Z,3.70
2023-03-28T20:44:54.164Z,4.03
2023-03-28T20:47:25.177Z,3.83
2023-03-28T20:49:56.854Z,4.40
2023-03-28T20:52:26.314Z,3.83
2023-03-28T20:54:55.696Z,4.90
2023-03-28T20:57:30.289Z,4.25
2023-03-28T21:00:01.251Z,4.15
2023-03-28T21:02:33.617Z,4.38
2023-03-28T21:05:04.517Z,4.30
2023-03-28T21:07:33.964Z,5.68
2023-03-28T21:10:03.910Z,4.63
2023-03-28T21:12:34.730Z,5.03
2023-03-28T21:15:04.641Z,4.30
2023-03-28T21:17:34.464Z,4.50
2023-03-28T21:20:07.169Z,5.03
2023-03-28T21:22:37.964Z,12.37
2023-03-28T21:25:10.455Z,4.47
2023-03-28T21:27:41.465Z,3.70
2023-03-28T21:30:13.800Z,3.85
2023-03-28T21:32:43.913Z,4.40
2023-03-28T21:35:15.238Z,3.58
2023-03-28T21:37:44.645Z,4.18
2023-03-28T21:40:14.144Z,3.42
2023-03-28T21:42:44.952Z,3.88
2023-03-28T21:45:14.423Z,4.10
2023-03-28T21:47:44.921Z,3.40
2023-03-28T21:50:15.086Z,3.13
2023-03-28T21:52:44.672Z,3.70
2023-03-28T21:55:14.101Z,3.35
2023-03-28T21:57:44.924Z,2.95
2023-03-28T22:00:17.221Z,3.53
2023-03-28T22:02:46.677Z,5.38
2023-03-28T22:05:28.609Z,2.67
2023-03-28T22:07:59.905Z,3.00
2023-03-28T22:10:29.351Z,3.08
2023-03-28T22:13:00.219Z,2.75
2023-03-28T22:15:32.377Z,2.75
2023-03-28T22:18:04.402Z,3.15
2023-03-28T22:20:33.958Z,3.40
2023-03-28T22:23:04.603Z,2.75
2023-03-28T22:25:38.221Z,3.05
2023-03-28T22:28:11.859Z,2.60
2023-03-28T22:30:42.351Z,5.35
2023-03-28T22:33:13.457Z,2.92
2023-03-28T22:35:43.066Z,3.50
2023-03-28T22:38:12.454Z,3.53
2023-03-28T22:40:42.006Z,2.80
2023-03-28T22:43:12.985Z,3.25
2023-03-28T22:45:42.865Z,3.05
2023-03-28T22:48:15.138Z,3.00
2023-03-28T22:50:46.199Z,3.38
2023-03-28T22:53:16.312Z,2.85
2023-03-28T22:55:46.310Z,3.28
2023-03-28T22:58:17.932Z,3.65
2023-03-28T23:00:47.559Z,2.67
2023-03-28T23:03:18.007Z,3.33
2023-03-28T23:05:47.640Z,3.38
2023-03-28T23:08:17.108Z,3.58
2023-03-28T23:10:47.433Z,3.83
2023-03-28T23:13:18.242Z,2.83
2023-03-28T23:15:47.908Z,3.10
2023-03-28T23:18:17.420Z,2.70
2023-03-28T23:20:51.209Z,2.85
2023-03-28T23:23:21.043Z,3.00
2023-03-28T23:25:50.427Z,3.10
2023-03-28T23:28:21.160Z,3.58
2023-03-28T23:30:50.655Z,3.53
2023-03-28T23:33:20.829Z,3.38
2023-03-28T23:35:50.433Z,3.25
2023-03-28T23:38:20.005Z,3.20
2023-03-28T23:40:49.555Z,3.35
2023-03-28T23:43:20.358Z,3.08
2023-03-28T23:45:49.802Z,3.45
2023-03-28T23:48:19.309Z,3.33
2023-03-28T23:50:48.672Z,4.55
2023-03-28T23:53:18.091Z,3.80
2023-03-28T23:55:47.501Z,3.47
2023-03-28T23:58:16.940Z,4.80
